Time;durP1;ratioP1;P1;durP2;ratioP2;P2;SDS_P1;SDS_P2;PMS_P1;PMS_P2;Temp;Humidity;BMP_temperature;BMP_pressure;BME280_temperature;BME280_humidity;BME280_pressure;Samples;Min_cycle;Max_cycle;Signal;HPM_P1;HPM_P2
2021/09/11 00:01:47;;;;;;;2.90;1.23;;;;;;;;;;4868175;28;20217;-76
2021/09/11 00:04:10;;;;;;;2.03;1.03;;;;;;;;;;4866872;28;20229;-77
2021/09/11 00:06:33;;;;;;;1.67;0.93;;;;;;;;;;4871455;28;20592;-76
2021/09/11 00:08:56;;;;;;;3.20;1.53;;;;;;;;;;4863374;28;20190;-75
2021/09/11 00:11:18;;;;;;;1.40;1.00;;;;;;;;;;4866033;28;20208;-76
2021/09/11 00:13:42;;;;;;;1.93;1.10;;;8.70;37.40;;;;;;4866544;28;20193;-76
2021/09/11 00:16:06;;;;;;;1.50;0.87;;;;;;;;;;4866156;28;20246;-76
2021/09/11 00:18:30;;;;;;;1.57;1.07;;;;;;;;;;4866329;28;20239;-75
2021/09/11 00:20:53;;;;;;;2.40;1.43;;;;;;;;;;4864083;28;20207;-76
2021/09/11 00:23:15;;;;;;;1.83;1.10;;;;;;;;;;4865903;28;20186;-75
2021/09/11 00:25:38;;;;;;;2.70;1.17;;;;;;;;;;4867487;28;20186;-76
2021/09/11 00:28:01;;;;;;;2.37;1.33;;;;;;;;;;4860677;28;20236;-76
2021/09/11 00:30:25;;;;;;;0.73;0.50;;;8.50;38.10;;;;;;4865512;28;20237;-75
2021/09/11 00:32:48;;;;;;;2.87;1.40;;;;;;;;;;4867731;28;20296;-75
2021/09/11 00:35:12;;;;;;;1.13;0.73;;;8.50;37.20;;;;;;4857359;28;20222;-74
2021/09/11 00:37:35;;;;;;;1.23;0.73;;;;;;;;;;4864775;28;20186;-77
2021/09/11 00:39:58;;;;;;;2.63;1.47;;;;;;;;;;4868047;28;20643;-74
2021/09/11 00:42:21;;;;;;;1.80;1.07;;;;;;;;;;4864800;28;20186;-76
2021/09/11 00:44:43;;;;;;;1.27;0.80;;;;;;;;;;4866945;28;20189;-75
2021/09/11 00:47:08;;;;;;;1.40;0.93;;;8.30;37.70;;;;;;4865072;28;20189;-75
2021/09/11 00:49:30;;;;;;;1.80;0.97;;;;;;;;;;4863401;28;20189;-77
2021/09/11 00:51:53;;;;;;;2.83;1.50;;;;;;;;;;4866299;28;20217;-74
2021/09/11 00:54:16;;;;;;;1.77;1.00;;;;;;;;;;4870624;28;20247;-74
2021/09/11 00:56:39;;;;;;;1.40;0.90;;;;;;;;;;4868566;28;20185;-75
2021/09/11 00:59:02;;;;;;;2.57;1.47;;;8.40;36.00;;;;;;4875745;28;20189;-75
2021/09/11 01:01:24;;;;;;;4.13;1.43;;;;;;;;;;4872830;28;20200;-75
2021/09/11 01:03:48;;;;;;;2.50;1.37;;;8.30;36.00;;;;;;4872601;28;20532;-74
2021/09/11 01:06:11;;;;;;;1.97;1.07;;;;;;;;;;4867527;28;20767;-78
2021/09/11 01:08:34;;;;;;;1.53;0.93;;;;;;;;;;4871255;28;20268;-75
2021/09/11 01:10:58;;;;;;;2.03;1.10;;;8.20;36.50;;;;;;4864544;28;20189;-75
2021/09/11 01:13:21;;;;;;;1.70;1.00;;;;;;;;;;4870046;28;20221;-75
2021/09/11 01:15:44;;;;;;;1.17;0.73;;;;;;;;;;4870420;28;20190;-75
2021/09/11 01:18:07;;;;;;;1.37;0.73;;;8.10;36.10;;;;;;4870165;28;20189;-76
2021/09/11 01:20:31;;;;;;;1.77;1.00;;;8.10;35.90;;;;;;4862795;28;20189;-74
2021/09/11 01:22:54;;;;;;;2.30;1.23;;;;;;;;;;4866205;28;20219;-76
2021/09/11 01:25:18;;;;;;;1.87;1.00;;;8.10;35.30;;;;;;4868774;28;20193;-76
2021/09/11 01:27:41;;;;;;;1.47;0.80;;;;;;;;;;4883163;28;20679;-75
2021/09/11 01:30:06;;;;;;;0.90;0.60;;;8.10;35.80;;;;;;4867578;28;20435;-76
2021/09/11 01:32:30;;;;;;;2.03;0.90;;;8.10;36.40;;;;;;4866758;28;20259;-74
2021/09/11 01:34:53;;;;;;;4.00;1.43;;;;;;;;;;4867148;28;20218;-74
2021/09/11 01:37:16;;;;;;;2.83;1.10;;;;;;;;;;4868897;28;20244;-74
2021/09/11 01:39:38;;;;;;;3.23;1.07;;;;;;;;;;4869473;28;20250;-75
2021/09/11 01:42:02;;;;;;;7.33;1.73;;;7.90;36.90;;;;;;4866777;28;20198;-74
2021/09/11 01:44:25;;;;;;;1.33;0.67;;;;;;;;;;4868857;28;20190;-75
2021/09/11 01:46:50;;;;;;;3.20;1.43;;;7.80;36.80;;;;;;4870125;28;20251;-77
2021/09/11 01:49:13;;;;;;;2.13;1.10;;;;;;;;;;4868641;28;20189;-75
2021/09/11 01:51:35;;;;;;;1.00;0.60;;;;;;;;;;4866593;28;20181;-74
2021/09/11 01:53:58;;;;;;;2.80;1.50;;;;;;;;;;4870494;28;20247;-74
2021/09/11 01:56:21;;;;;;;1.83;1.00;;;;;;;;;;4868822;28;20228;-75
2021/09/11 01:58:44;;;;;;;0.70;0.53;;;7.80;36.30;;;;;;4869722;28;20263;-76
2021/09/11 02:01:07;;;;;;;3.13;1.20;;;;;;;;;;4866400;28;20684;-75
2021/09/11 02:03:30;;;;;;;1.03;0.70;;;;;;;;;;4866829;28;20193;-75
2021/09/11 02:05:53;;;;;;;2.90;1.37;;;;;;;;;;4868329;28;20716;-80
2021/09/11 02:08:16;;;;;;;2.47;1.13;;;;;;;;;;4860043;28;20194;-81
2021/09/11 02:10:38;;;;;;;1.87;0.90;;;;;;;;;;4863440;28;20189;-81
2021/09/11 02:13:01;;;;;;;3.97;1.53;;;;;;;;;;4869488;28;20213;-80
2021/09/11 02:15:25;;;;;;;1.43;0.60;;;7.60;37.60;;;;;;4862324;28;20190;-79
2021/09/11 02:17:48;;;;;;;5.03;1.70;;;;;;;;;;4866581;28;20186;-79
2021/09/11 02:20:12;;;;;;;3.20;1.20;;;7.60;37.60;;;;;;4870524;28;20243;-81
2021/09/11 02:22:35;;;;;;;2.33;0.80;;;;;;;;;;4866625;28;20660;-80
2021/09/11 02:24:57;;;;;;;4.23;1.67;;;;;;;;;;4866410;28;20248;-80
2021/09/11 02:27:20;;;;;;;4.00;1.23;;;;;;;;;;4868534;28;20875;-80
2021/09/11 02:29:43;;;;;;;3.43;0.97;;;;;;;;;;4869527;28;20214;-76
2021/09/11 02:32:08;;;;;;;1.50;0.80;;;7.50;38.00;;;;;;4866188;28;20324;-80
2021/09/11 02:34:31;;;;;;;1.07;0.80;;;;;;;;;;4866010;28;20615;-81
2021/09/11 02:36:54;;;;;;;2.03;1.30;;;;;;;;;;4861342;28;20757;-81
2021/09/11 02:39:16;;;;;;;1.40;1.00;;;;;;;;;;4861607;28;20186;-81
2021/09/11 02:41:39;;;;;;;2.07;0.80;;;;;;;;;;4868326;28;20189;-80
2021/09/11 02:44:03;;;;;;;4.13;1.30;;;7.30;38.40;;;;;;4866943;28;20256;-78
2021/09/11 02:46:25;;;;;;;2.77;0.90;;;;;;;;;;4865110;28;20193;-80
2021/09/11 02:48:49;;;;;;;4.33;1.47;;;7.20;38.60;;;;;;4860828;28;20188;-77
2021/09/11 02:51:12;;;;;;;2.33;0.93;;;;;;;;;;4867077;28;20243;-81
2021/09/11 02:53:35;;;;;;;2.30;1.00;;;;;;;;;;4864180;28;20205;-80
2021/09/11 02:55:58;;;;;;;3.73;1.63;;;;;;;;;;4867681;28;20225;-80
2021/09/11 02:58:22;;;;;;;1.90;1.03;;;;;;;;;;4865716;28;20834;-79
2021/09/11 03:00:45;;;;;;;11.70;5.10;;;;;;;;;;4861199;28;20178;-80
2021/09/11 03:03:08;;;;;;;2.10;0.93;;;;;;;;;;4868653;28;20591;-81
2021/09/11 03:05:32;;;;;;;3.43;1.23;;;7.00;38.70;;;;;;4867773;28;20190;-80
2021/09/11 03:07:55;;;;;;;3.27;1.57;;;;;;;;;;4867408;28;20213;-74
2021/09/11 03:10:17;;;;;;;1.77;0.93;;;;;;;;;;4872922;28;20195;-79
2021/09/11 03:12:40;;;;;;;1.20;0.70;;;;;;;;;;4865666;28;20194;-80
2021/09/11 03:15:03;;;;;;;1.27;0.70;;;;;;;;;;4866249;28;20198;-77
2021/09/11 03:17:26;;;;;;;1.53;0.77;;;;;;;;;;4869412;28;20194;-80
2021/09/11 03:19:49;;;;;;;2.83;1.37;;;;;;;;;;4867402;28;20598;-80
2021/09/11 03:22:13;;;;;;;2.40;1.17;;;7.10;36.70;;;;;;4867335;28;20193;-80
2021/09/11 03:24:35;;;;;;;1.90;0.90;;;;;;;;;;4863404;28;20267;-80
2021/09/11 03:26:58;;;;;;;2.50;1.33;;;;;;;;;;4866989;28;20209;-79
2021/09/11 03:29:21;;;;;;;1.87;1.27;;;;;;;;;;4864081;28;20263;-80
2021/09/11 03:31:44;;;;;;;1.97;0.93;;;;;;;;;;4866870;28;20185;-79
2021/09/11 03:34:06;;;;;;;1.73;0.90;;;;;;;;;;4868645;28;20220;-78
2021/09/11 03:36:29;;;;;;;1.40;0.83;;;;;;;;;;4868226;28;20243;-80
2021/09/11 03:38:53;;;;;;;4.37;2.03;;;7.00;36.70;;;;;;4866580;28;20189;-80
2021/09/11 03:41:17;;;;;;;2.50;1.00;;;;;;;;;;4870224;28;20252;-79
2021/09/11 03:43:39;;;;;;;1.70;0.83;;;;;;;;;;4864059;28;20178;-80
2021/09/11 03:46:02;;;;;;;1.73;0.70;;;;;;;;;;4866298;28;20194;-75
2021/09/11 03:48:25;;;;;;;2.10;0.83;;;;;;;;;;4869242;28;20189;-79
2021/09/11 03:50:47;;;;;;;4.33;1.43;;;;;;;;;;4863961;28;20244;-77
2021/09/11 03:53:10;;;;;;;3.50;1.20;;;;;;;;;;4861540;28;20218;-80
2021/09/11 03:55:34;;;;;;;3.03;1.03;;;6.90;37.30;;;;;;4869645;28;20189;-79
2021/09/11 03:57:57;;;;;;;5.13;1.57;;;;;;;;;;4864470;28;20610;-80
2021/09/11 04:00:20;;;;;;;2.43;1.03;;;;;;;;;;4858810;28;20190;-80
2021/09/11 04:02:42;;;;;;;0.90;0.50;;;;;;;;;;4858880;28;20229;-75
2021/09/11 04:05:07;;;;;;;2.17;0.90;;;8.20;38.80;;;;;;4886747;28;20623;-80
2021/09/11 04:07:29;;;;;;;4.23;1.03;;;;;;;;;;4862418;28;20725;-80
2021/09/11 04:09:52;;;;;;;7.17;1.57;;;;;;;;;;4867243;28;20260;-79
2021/09/11 04:12:16;;;;;;;4.87;1.30;;;6.70;38.40;;;;;;4858980;28;20252;-80
2021/09/11 04:14:39;;;;;;;2.30;1.10;;;;;;;;;;4867417;28;20209;-80
2021/09/11 04:17:02;;;;;;;1.90;1.23;;;;;;;;;;4865520;28;20238;-76
2021/09/11 04:19:25;;;;;;;1.57;1.03;;;;;;;;;;4868311;28;20189;-75
2021/09/11 04:21:47;;;;;;;1.90;1.20;;;;;;;;;;4864938;28;20651;-77
2021/09/11 04:24:10;;;;;;;1.07;0.83;;;;;;;;;;4860034;28;20201;-75
2021/09/11 04:26:33;;;;;;;1.60;0.90;;;6.70;36.90;;;;;;4868461;28;20181;-78
2021/09/11 04:28:57;;;;;;;2.30;1.33;;;6.70;36.30;;;;;;4882636;28;20192;-75
2021/09/11 04:31:20;;;;;;;1.60;1.00;;;;;;;;;;4864396;28;20247;-75
2021/09/11 04:33:43;;;;;;;1.33;0.60;;;;;;;;;;4863772;28;20745;-76
2021/09/11 04:36:07;;;;;;;1.40;0.80;;;;;;;;;;4866286;28;20188;-74
2021/09/11 04:38:29;;;;;;;2.53;1.30;;;;;;;;;;4857380;28;20212;-75
2021/09/11 04:40:52;;;;;;;2.63;1.37;;;;;;;;;;4860738;28;20718;-73
2021/09/11 04:43:15;;;;;;;1.63;1.10;;;;;;;;;;4865547;28;20202;-76
2021/09/11 04:45:39;;;;;;;1.53;0.93;;;6.70;38.00;;;;;;4866747;28;20189;-77
2021/09/11 04:48:02;;;;;;;3.50;1.83;;;;;;;;;;4881325;28;20737;-74
2021/09/11 04:50:24;;;;;;;1.10;0.70;;;;;;;;;;4859782;28;20182;-75
2021/09/11 04:52:47;;;;;;;2.50;1.23;;;;;;;;;;4866965;28;20189;-75
2021/09/11 04:55:10;;;;;;;1.77;0.93;;;6.90;36.00;;;;;;4866439;28;20658;-74
2021/09/11 04:57:33;;;;;;;1.90;0.90;;;;;;;;;;4866668;28;20552;-74
2021/09/11 04:59:56;;;;;;;4.03;1.43;;;;;;;;;;4881830;28;20270;-74
2021/09/11 05:02:19;;;;;;;3.53;1.37;;;7.00;35.90;;;;;;4856002;28;20233;-76
2021/09/11 05:04:42;;;;;;;4.10;1.20;;;;;;;;;;4866217;28;20197;-74
2021/09/11 05:07:05;;;;;;;0.60;0.60;;;;;;;;;;4856588;28;20608;-77
2021/09/11 05:09:28;;;;;;;0.80;0.80;;;;;;;;;;4859155;28;20198;-79
2021/09/11 05:11:51;;;;;;;1.13;1.00;;;;;;;;;;4865706;28;20635;-79
2021/09/11 05:14:14;;;;;;;0.70;0.67;;;;;;;;;;4865212;28;20240;-78
2021/09/11 05:16:37;;;;;;;1.10;1.00;;;;;;;;;;4862068;28;20244;-80
2021/09/11 05:19:01;;;;;;;1.27;1.07;;;7.40;34.30;;;;;;4865443;28;20202;-77
2021/09/11 05:21:24;;;;;;;0.53;0.50;;;;;;;;;;4865696;28;20193;-75
2021/09/11 05:23:47;;;;;;;1.00;0.90;;;;;;;;;;4863044;28;20194;-79
2021/09/11 05:26:09;;;;;;;0.70;0.60;;;;;;;;;;4859259;28;20305;-78
2021/09/11 05:28:32;;;;;;;0.73;0.67;;;7.80;32.50;;;;;;4866299;28;20247;-79
2021/09/11 05:30:55;;;;;;;1.17;1.07;;;;;;;;;;4866867;28;20236;-79
2021/09/11 05:33:18;;;;;;;0.77;0.70;;;;;;;;;;4863469;28;20668;-75
2021/09/11 05:35:42;;;;;;;0.93;0.83;;;8.20;31.40;;;;;;4862131;28;20217;-78
2021/09/11 05:38:05;;;;;;;0.70;0.70;;;;;;;;;;4866356;28;20242;-79
2021/09/11 05:40:27;;;;;;;0.77;0.77;;;;;;;;;;4865156;28;20205;-79
2021/09/11 05:42:50;;;;;;;1.50;1.13;;;;;;;;;;4872251;28;20235;-79
2021/09/11 05:45:13;;;;;;;0.60;0.60;;;;;;;;;;4877987;28;20588;-78
2021/09/11 05:47:36;;;;;;;0.83;0.80;;;;;;;;;;4877558;28;20288;-79
2021/09/11 05:49:58;;;;;;;1.00;0.83;;;;;;;;;;4877270;28;20271;-79
2021/09/11 05:52:22;;;;;;;0.60;0.60;;;9.10;99.90;;;;;;4878820;28;20193;-79
2021/09/11 05:54:45;;;;;;;0.70;0.63;;;;;;;;;;4877353;28;20213;-79
2021/09/11 05:57:07;;;;;;;0.80;0.70;;;;;;;;;;4876778;28;20251;-79
2021/09/11 05:59:30;;;;;;;0.70;0.70;;;;;;;;;;4878518;28;20193;-79
2021/09/11 06:01:54;;;;;;;1.10;0.93;;;;;;;;;;4868250;28;20682;-77
2021/09/11 06:04:17;;;;;;;0.97;0.70;;;;;;;;;;4858305;28;20586;-79
2021/09/11 06:06:41;;;;;;;1.80;0.90;;;;;;;;;;4857953;28;20206;-78
2021/09/11 06:09:05;;;;;;;0.93;0.70;;;10.70;99.90;;;;;;4859025;28;20190;-75
2021/09/11 06:11:28;;;;;;;0.80;0.73;;;;;;;;;;4861853;28;20194;-75
2021/09/11 06:13:50;;;;;;;1.83;1.20;;;;;;;;;;4868044;28;20260;-76
2021/09/11 06:16:13;;;;;;;1.03;0.80;;;;;;;;;;4877781;28;20205;-75
2021/09/11 06:18:37;;;;;;;0.83;0.73;;;;;;;;;;4869999;28;20202;-74
2021/09/11 06:21:00;;;;;;;1.30;1.10;;;;;;;;;;4866766;28;20587;-75
2021/09/11 06:23:23;;;;;;;1.13;0.90;;;;;;;;;;4868807;28;20197;-75
2021/09/11 06:25:47;;;;;;;1.00;0.77;;;11.60;39.80;;;;;;4869170;28;20193;-74
2021/09/11 06:28:10;;;;;;;1.07;0.83;;;;;;;;;;4868398;28;20248;-75
2021/09/11 06:30:33;;;;;;;0.50;0.50;;;;;;;;;;4863467;28;20197;-74
2021/09/11 06:32:56;;;;;;;1.70;1.33;;;;;;;;;;4869320;28;20194;-75
2021/09/11 06:35:19;;;;;;;1.00;0.90;;;;;;;;;;4868656;28;20238;-75
2021/09/11 06:37:43;;;;;;;1.27;0.87;;;12.50;46.70;;;;;;4864273;28;20540;-73
2021/09/11 06:40:06;;;;;;;0.80;0.70;;;12.60;46.60;;;;;;4867719;28;20973;-76
2021/09/11 06:42:30;;;;;;;0.70;0.70;;;12.80;46.60;;;;;;4861798;28;20235;-73
2021/09/11 06:44:53;;;;;;;3.50;2.00;;;;;;;;;;4881347;28;20209;-73
2021/09/11 06:47:16;;;;;;;1.20;0.90;;;;;;;;;;4867723;28;20194;-74
2021/09/11 06:49:39;;;;;;;0.80;0.63;;;;;;;;;;4876154;28;20185;-73
2021/09/11 06:52:01;;;;;;;1.63;1.17;;;;;;;;;;4874084;28;20193;-74
2021/09/11 06:54:24;;;;;;;2.90;1.73;;;;;;;;;;4867653;28;20599;-73
2021/09/11 06:56:47;;;;;;;1.20;0.90;;;;;;;;;;4866198;28;20205;-72
2021/09/11 06:59:12;;;;;;;1.07;0.83;;;14.10;48.80;;;;;;4870652;28;20240;-73
2021/09/11 07:01:35;;;;;;;1.47;0.93;;;;;;;;;;4859376;28;20236;-73
2021/09/11 07:03:58;;;;;;;1.67;1.00;;;;;;;;;;4863024;28;20248;-74
2021/09/11 07:06:20;;;;;;;1.40;0.90;;;;;;;;;;4867661;28;20187;-74
2021/09/11 07:08:43;;;;;;;1.70;1.13;;;;;;;;;;4869783;28;20239;-74
2021/09/11 07:11:06;;;;;;;1.43;0.90;;;;;;;;;;4867687;28;20190;-74
2021/09/11 07:13:28;;;;;;;0.70;0.50;;;;;;;;;;4862114;28;20194;-72
2021/09/11 07:15:52;;;;;;;2.90;1.53;;;15.00;49.30;;;;;;4863913;28;20213;-75
2021/09/11 07:18:15;;;;;;;1.50;0.90;;;;;;;;;;4864357;28;20657;-73
2021/09/11 07:20:38;;;;;;;2.13;1.17;;;;;;;;;;4860956;28;20283;-75
2021/09/11 07:23:01;;;;;;;2.97;1.50;;;;;;;;;;4865718;28;20237;-75
2021/09/11 07:25:24;;;;;;;1.47;0.93;;;;;;;;;;4867492;28;20194;-74
2021/09/11 07:27:46;;;;;;;1.50;0.93;;;;;;;;;;4871990;28;20181;-74
2021/09/11 07:30:10;;;;;;;1.67;0.93;;;15.80;50.30;;;;;;4864962;28;20214;-73
2021/09/11 07:32:34;;;;;;;1.50;0.80;;;15.90;50.30;;;;;;4876195;28;20250;-76
2021/09/11 07:34:56;;;;;;;1.97;1.07;;;;;;;;;;4857542;28;20303;-73
2021/09/11 07:37:19;;;;;;;3.73;1.80;;;;;;;;;;4856411;28;20200;-73
2021/09/11 07:39:42;;;;;;;1.67;1.00;;;;;;;;;;4858126;28;20236;-73
2021/09/11 07:42:05;;;;;;;2.63;1.37;;;16.70;50.90;;;;;;4857504;28;20182;-74
2021/09/11 07:44:28;;;;;;;1.07;0.60;;;;;;;;;;4857677;28;20276;-75
2021/09/11 07:46:50;;;;;;;2.40;1.00;;;;;;;;;;4857529;28;20186;-75
2021/09/11 07:49:14;;;;;;;1.60;0.80;;;17.20;51.10;;;;;;4856347;28;20593;-73
2021/09/11 07:51:37;;;;;;;2.37;0.97;;;;;;;;;;4857398;28;20186;-73
2021/09/11 07:54:00;;;;;;;2.53;1.10;;;;;;;;;;4857234;28;20580;-73
2021/09/11 07:56:23;;;;;;;2.07;0.90;;;;;;;;;;4857424;28;20213;-73
2021/09/11 07:58:46;;;;;;;1.70;0.73;;;;;;;;;;4857252;28;20249;-74
2021/09/11 08:01:09;;;;;;;1.10;0.60;;;;;;;;;;4855642;28;20256;-75
2021/09/11 08:03:32;;;;;;;1.63;0.83;;;;;;;;;;4857287;28;20178;-75
2021/09/11 08:05:56;;;;;;;3.80;1.57;;;18.60;53.10;;;;;;4874036;28;20205;-73
2021/09/11 08:08:19;;;;;;;1.60;0.80;;;;;;;;;;4876226;28;20185;-77
2021/09/11 08:10:41;;;;;;;2.23;1.00;;;;;;;;;;4876348;28;20182;-73
2021/09/11 08:13:04;;;;;;;2.87;1.13;;;;;;;;;;4876288;28;20189;-74
2021/09/11 08:15:27;;;;;;;2.13;0.87;;;;;;;;;;4876353;28;20267;-74
2021/09/11 08:17:50;;;;;;;2.80;1.13;;;;;;;;;;4874309;28;20615;-80
2021/09/11 08:20:14;;;;;;;2.63;0.90;;;19.40;53.90;;;;;;4857223;28;20189;-80
2021/09/11 08:22:38;;;;;;;1.83;0.77;;;19.40;54.10;;;;;;4857111;28;20186;-81
2021/09/11 08:25:01;;;;;;;3.13;1.07;;;;;;;;;;4856976;28;20185;-81
2021/09/11 08:27:24;;;;;;;2.47;0.90;;;;;;;;;;4857146;28;20182;-78
2021/09/11 08:29:46;;;;;;;3.73;1.07;;;;;;;;;;4856974;28;20202;-82
2021/09/11 08:32:09;;;;;;;2.47;0.70;;;;;;;;;;4856993;28;20190;-80
2021/09/11 08:34:32;;;;;;;2.67;0.83;;;;;;;;;;4856505;28;20225;-81
2021/09/11 08:36:56;;;;;;;20.93;16.53;;;;;;;;;;4856984;28;20193;-81
2021/09/11 08:39:24;;;;;;;2.50;0.80;;;20.40;54.90;;;;;;4856963;28;20180;-77
2021/09/11 08:41:47;;;;;;;1.73;0.63;;;;;;;;;;4857014;28;20186;-82
2021/09/11 08:44:10;;;;;;;1.80;0.70;;;20.80;55.20;;;;;;4855723;28;20191;-85
2021/09/11 08:46:33;;;;;;;3.73;1.53;;;;;;;;;;4856826;28;20182;-77
2021/09/11 08:48:56;;;;;;;4.50;1.13;;;;;;;;;;4857000;28;20194;-82
2021/09/11 08:51:19;;;;;;;40.67;25.80;;;;;;;;;;4856655;28;20587;-80
2021/09/11 08:53:41;;;;;;;74.27;43.63;;;;;;;;;;4856806;28;20603;-79
2021/09/11 08:56:06;;;;;;;6.90;1.33;;;22.20;56.70;;;;;;4856765;28;20260;-79
2021/09/11 08:58:29;;;;;;;19.37;8.63;;;;;;;;;;4856640;28;20262;-77
2021/09/11 09:00:53;;;;;;;11.53;1.90;;;23.10;57.30;;;;;;4853699;28;20209;-81
2021/09/11 09:03:36;;;;;;;18.10;15.40;;;23.60;57.90;;;;;;4856642;28;20186;-81
2021/09/11 09:06:18;;;;;;;111.00;79.03;;;24.50;58.80;;;;;;4856285;28;20198;-82
2021/09/11 09:08:41;;;;;;;48.87;22.53;;;;;;;;;;4856127;28;20211;-82
2021/09/11 09:11:17;;;;;;;9.80;1.77;;;28.00;46.30;;;;;;4856349;28;20243;-81
2021/09/11 09:13:53;;;;;;;6.17;1.20;;;30.50;47.70;;;;;;4856439;28;20176;-85
2021/09/11 09:16:16;;;;;;;7.60;1.33;;;;;;;;;;4871338;28;20233;-85
2021/09/11 09:18:39;;;;;;;7.03;1.27;;;;;;;;;;4858537;28;20246;-84
2021/09/11 09:21:18;;;;;;;11.67;1.87;;;36.10;50.60;;;;;;4859912;28;20200;-79
2021/09/11 09:23:47;;;;;;;8.50;1.27;;;37.90;51.50;;;;;;4858769;28;20189;-82
2021/09/11 09:26:09;;;;;;;7.20;1.15;;;;;;;;;;4859953;28;20275;-79
2021/09/11 09:28:33;;;;;;;10.65;1.58;;;40.50;52.60;;;;;;4859744;28;20193;-81
2021/09/11 09:30:56;;;;;;;12.23;1.75;;;;;;;;;;4859808;28;20182;-83
2021/09/11 09:33:20;;;;;;;9.73;1.48;;;41.40;52.90;;;;;;4859910;28;20705;-83
2021/09/11 09:35:43;;;;;;;8.25;1.23;;;;;;;;;;4859770;28;20627;-78
2021/09/11 09:38:10;;;;;;;15.75;2.25;;;42.80;53.50;;;;;;4858450;28;20203;-83
2021/09/11 09:40:41;;;;;;;9.15;1.35;;;43.40;53.80;;;;;;4859678;28;20241;-83
2021/09/11 09:43:04;;;;;;;14.30;1.85;;;;;;;;;;4859374;28;20254;-82
2021/09/11 09:45:30;;;;;;;233.50;214.27;;;43.90;54.00;;;;;;4858205;28;20210;-82
2021/09/11 09:48:00;;;;;;;66.25;24.80;;;44.30;54.10;;;;;;4859093;28;20307;-83
2021/09/11 09:50:23;;;;;;;88.68;74.85;;;;;;;;;;4874407;28;20635;-81
2021/09/11 09:52:46;;;;;;;64.47;57.80;;;;;;;;;;4859227;28;20214;-83
2021/09/11 09:55:10;;;;;;;14.23;4.80;;;44.80;54.30;;;;;;4859409;28;20236;-78
2021/09/11 09:57:33;;;;;;;23.25;20.33;;;;;;;;;;4858838;28;20240;-75
2021/09/11 09:59:56;;;;;;;87.90;80.30;;;;;;;;;;4859181;28;20190;-77
2021/09/11 10:02:22;;;;;;;95.38;89.32;;;44.90;54.50;;;;;;4857864;28;20182;-75
2021/09/11 10:04:45;;;;;;;29.20;25.98;;;;;;;;;;4859271;28;20240;-74
2021/09/11 10:07:09;;;;;;;37.60;34.08;;;45.10;54.60;;;;;;4857863;28;20226;-79
2021/09/11 10:09:32;;;;;;;71.68;66.80;;;;;;;;;;4859386;28;20595;-74
2021/09/11 10:11:55;;;;;;;132.32;122.95;;;45.80;54.80;;;;;;4858962;28;20189;-75
2021/09/11 10:14:20;;;;;;;178.90;168.45;;;46.70;55.10;;;;;;4859276;28;20235;-80
2021/09/11 10:16:44;;;;;;;230.35;217.93;;;47.30;55.30;;;;;;4859132;28;20203;-78
2021/09/11 10:19:20;;;;;;;203.10;190.25;;;47.50;55.40;;;;;;4859143;28;20247;-75
2021/09/11 10:21:43;;;;;;;273.02;257.95;;;;;;;;;;4867782;28;20524;-77
2021/09/11 10:24:30;;;;;;;231.65;217.18;;;48.00;55.60;;;;;;4877125;28;20587;-79
2021/09/11 10:26:54;;;;;;;289.15;272.55;;;48.20;55.70;;;;;;4875480;28;20216;-80
2021/09/11 10:29:40;;;;;;;316.55;298.30;;;47.90;55.60;;;;;;4876831;28;20201;-80
2021/09/11 10:32:06;;;;;;;219.25;205.82;;;47.50;55.50;;;;;;4877124;28;20231;-82
2021/09/11 10:34:47;;;;;;;199.65;188.38;;;47.70;55.50;;;;;;4876935;28;20289;-74
2021/09/11 10:37:10;;;;;;;151.70;142.75;;;48.20;55.60;;;;;;4876953;28;20208;-79
2021/09/11 10:39:33;;;;;;;114.40;107.72;;;48.90;55.90;;;;;;4877331;28;20186;-78
2021/09/11 10:42:04;;;;;;;72.53;66.90;;;49.10;56.00;;;;;;4877856;28;20189;-81
2021/09/11 10:44:27;;;;;;;86.20;80.25;;;;;;;;;;4876881;28;20197;-80
2021/09/11 10:46:50;;;;;;;99.68;93.15;;;;;;;;;;4877796;28;20231;-79
2021/09/11 10:49:26;;;;;;;90.47;84.32;;;49.90;56.30;;;;;;4877943;28;20243;-78
2021/09/11 10:52:02;;;;;;;101.68;95.32;;;50.10;56.30;;;;;;4876347;28;20239;-80
2021/09/11 10:54:31;;;;;;;75.40;69.93;;;50.20;56.40;;;;;;4877858;28;20258;-86
2021/09/11 10:57:03;;;;;;;55.25;50.55;;;50.40;56.50;;;;;;4877680;28;20219;-81
2021/09/11 10:59:34;;;;;;;42.15;38.67;;;50.40;56.50;;;;;;4876674;28;20185;-85
2021/09/11 11:01:59;;;;;;;53.45;48.45;;;50.10;56.30;;;;;;4875674;28;20178;-82
2021/09/11 11:04:23;;;;;;;73.85;68.60;;;50.40;56.40;;;;;;4877775;28;20177;-83
2021/09/11 11:06:46;;;;;;;70.65;66.05;;;;;;;;;;4877795;28;20227;-92
2021/09/11 11:09:16;;;;;;;75.53;69.45;;;51.10;56.70;;;;;;4876677;28;20888;-80
2021/09/11 11:11:39;;;;;;;60.92;56.47;;;;;;;;;;4865620;28;20224;-81
2021/09/11 11:14:02;;;;;;;39.97;35.72;;;;;;;;;;4865403;28;20655;-85
2021/09/11 11:16:45;;;;;;;28.90;25.90;;;51.80;56.90;;;;;;4866200;28;20198;-80
2021/09/11 11:19:08;;;;;;;30.55;23.23;;;;;;;;;;4865974;28;20232;-85
2021/09/11 11:21:30;;;;;;;36.63;32.80;;;;;;;;;;4867311;28;20259;-83
2021/09/11 11:23:53;;;;;;;50.00;45.03;;;;;;;;;;4858163;28;20255;-84
2021/09/11 11:26:18;;;;;;;51.72;47.83;;;52.30;57.10;;;;;;4868487;28;20209;-83
2021/09/11 11:28:41;;;;;;;68.38;63.42;;;;;;;;;;4857832;28;20620;-85
2021/09/11 11:31:04;;;;;;;82.70;76.97;;;52.50;57.20;;;;;;4857925;28;20229;-87
2021/09/11 11:33:26;;;;;;;102.47;96.53;;;;;;;;;;4873846;28;20205;-86
2021/09/11 11:35:49;;;;;;;81.50;76.50;;;;;;;;;;4857609;28;20225;-82
2021/09/11 11:38:14;;;;;;;89.60;84.00;;;;;;;;;;4857860;28;20190;-82
2021/09/11 11:40:36;;;;;;;115.85;98.60;;;;;;;;;;4855070;28;20185;-86
2021/09/11 11:43:05;;;;;;;111.18;100.45;;;53.60;57.50;;;;;;4867486;28;20192;-84
2021/09/11 11:45:27;;;;;;;80.18;74.40;;;;;;;;;;4856960;28;20194;-94
2021/09/11 11:47:59;;;;;;;6.90;1.02;;;53.20;57.50;;;;;;4862897;28;20663;-89
2021/09/11 11:50:25;;;;;;;24.63;3.17;;;53.40;57.50;;;;;;4863835;28;20189;-83
2021/09/11 11:52:53;;;;;;;35.78;4.47;;;53.90;57.60;;;;;;4854869;28;20198;-84
2021/09/11 11:55:16;;;;;;;16.52;2.15;;;;;;;;;;4857187;28;20652;-81
2021/09/11 11:57:39;;;;;;;18.17;2.42;;;54.20;50.30;;;;;;4865021;28;20614;-81
2021/09/11 12:00:05;;;;;;;35.50;4.38;;;54.30;50.30;;;;;;4857391;28;20644;-77
2021/09/11 12:02:31;;;;;;;12.15;1.67;;;54.60;50.40;;;;;;4861264;28;20190;-80
2021/09/11 12:04:55;;;;;;;35.35;4.40;;;54.80;50.50;;;;;;4856874;28;20251;-82
2021/09/11 12:07:31;;;;;;;12.32;1.80;;;55.00;50.60;;;;;;4862444;28;20226;-83
2021/09/11 12:09:54;;;;;;;31.15;3.95;;;;;;;;;;4867959;28;20197;-80
2021/09/11 12:12:22;;;;;;;18.02;2.40;;;54.60;49.40;;;;;;4875531;28;20185;-80
2021/09/11 12:14:46;;;;;;;11.35;1.60;;;55.30;50.60;;;;;;4891123;28;20200;-80
2021/09/11 12:17:16;;;;;;;17.75;2.40;;;55.30;50.70;;;;;;4875456;28;20181;-81
2021/09/11 12:19:39;;;;;;;11.57;1.58;;;55.70;49.80;;;;;;4875778;28;20177;-78
2021/09/11 12:22:17;;;;;;;20.83;2.75;;;55.90;50.80;;;;;;4874879;28;20193;-83
2021/09/11 12:24:40;;;;;;;10.18;1.48;;;;;;;;;;4871670;28;20181;-79
2021/09/11 12:27:09;;;;;;;20.73;2.72;;;56.40;51.00;;;;;;4872817;28;20243;-90
2021/09/11 12:29:32;;;;;;;8.95;1.30;;;55.60;49.80;;;;;;4874802;28;20181;-81
2021/09/11 12:31:56;;;;;;;16.85;2.28;;;56.10;50.90;;;;;;4859859;28;20209;-84
2021/09/11 12:34:21;;;;;;;13.45;1.92;;;56.30;51.00;;;;;;4838873;28;20222;-80
2021/09/11 12:36:46;;;;;;;93.72;12.07;;;56.30;51.00;;;;;;4851244;28;20197;-79
2021/09/11 12:39:25;;;;;;;10.05;1.58;;;56.80;51.20;;;;;;4857751;28;20189;-78
2021/09/11 12:41:50;;;;;;;9.68;1.50;;;56.50;50.50;;;;;;4854826;28;20182;-81
2021/09/11 12:44:12;;;;;;;8.60;1.30;;;;;;;;;;4855535;28;20190;-77
2021/09/11 12:46:40;;;;;;;12.50;1.90;;;57.10;51.30;;;;;;4855743;28;20251;-84
2021/09/11 12:49:05;;;;;;;24.50;3.53;;;57.20;51.30;;;;;;4855179;28;20659;-84
2021/09/11 12:51:29;;;;;;;7.93;1.27;;;56.90;51.20;;;;;;4855919;28;20244;-83
2021/09/11 12:53:52;;;;;;;11.20;1.73;;;;;;;;;;4857259;28;20193;-82
2021/09/11 12:56:21;;;;;;;11.68;1.77;;;;;;;;;;4859860;28;20201;-79
2021/09/11 12:58:46;;;;;;;11.50;1.65;;;57.70;51.50;;;;;;4858898;28;20186;-83
2021/09/11 13:01:09;;;;;;;10.55;1.58;;;;;;;;;;4856287;28;20544;-83
2021/09/11 13:03:32;;;;;;;8.18;1.27;;;;;;;;;;4859355;28;20189;-82
2021/09/11 13:05:55;;;;;;;60.05;54.17;;;;;;;;;;4860032;28;20193;-84
2021/09/11 13:08:18;;;;;;;19.15;2.80;;;54.10;50.40;;;;;;4858621;28;20698;-83
2021/09/11 13:10:42;;;;;;;26.88;3.67;;;;;;;;;;4858976;28;20193;-82
2021/09/11 13:13:05;;;;;;;28.27;4.40;;;;;;;;;;4857627;28;20213;-79
2021/09/11 13:15:28;;;;;;;15.20;2.40;;;;;;;;;;4859582;28;20956;-82
2021/09/11 13:17:51;;;;;;;9.90;1.40;;;;;;;;;;4859543;28;20264;-84
2021/09/11 13:20:14;;;;;;;12.60;1.77;;;49.30;56.20;;;;;;4858363;28;20663;-81
2021/09/11 13:22:37;;;;;;;33.95;4.45;;;;;;;;;;4856957;28;20201;-78
2021/09/11 13:25:01;;;;;;;15.25;2.05;;;46.70;55.30;;;;;;4874622;28;20246;-77
2021/09/11 13:27:24;;;;;;;16.17;2.13;;;;;;;;;;4859274;28;20748;-81
2021/09/11 13:29:46;;;;;;;30.70;13.95;;;;;;;;;;4857131;28;20406;-82
2021/09/11 13:32:09;;;;;;;10.65;1.50;;;;;;;;;;4863034;28;20263;-78
2021/09/11 13:34:32;;;;;;;11.50;1.58;;;;;;;;;;4858641;28;20279;-80
2021/09/11 13:36:54;;;;;;;18.98;2.55;;;;;;;;;;4859298;28;20240;-84